Time;durP1;ratioP1;P1;durP2;ratioP2;P2;SDS_P1;SDS_P2;PMS_P1;PMS_P2;Temp;Humidity;BMP_temperature;BMP_pressure;BME280_temperature;BME280_humidity;BME280_pressure;Samples;Min_cycle;Max_cycle;Signal;HPM_P1;HPM_P2
2022/01/01 00:02:03;;;;;;;15.70;12.68;;;22.90;36.10;;;;;;5150802;27;20070;-70
2022/01/01 00:04:49;;;;;;;15.55;12.93;;;22.90;36.10;;;;;;5149821;27;20415;-71
2022/01/01 00:07:17;;;;;;;15.98;11.80;;;22.90;36.10;;;;;;5150755;27;20154;-71
2022/01/01 00:09:45;;;;;;;13.38;11.52;;;22.90;36.10;;;;;;5149095;27;20042;-71
2022/01/01 00:12:13;;;;;;;14.18;12.05;;;22.90;36.10;;;;;;5150358;27;20224;-70
2022/01/01 00:14:40;;;;;;;14.18;11.52;;;22.90;36.10;;;;;;5139212;27;20707;-71
2022/01/01 00:17:08;;;;;;;15.18;12.40;;;22.80;36.10;;;;;;5129146;27;20045;-70
2022/01/01 00:19:36;;;;;;;16.30;13.05;;;22.80;36.10;;;;;;5128695;27;20043;-71
2022/01/01 00:22:03;;;;;;;14.38;12.00;;;22.90;36.10;;;;;;5128675;27;20074;-71
2022/01/01 00:24:30;;;;;;;16.35;12.10;;;22.80;36.10;;;;;;5127737;27;20055;-71
2022/01/01 00:26:57;;;;;;;16.77;13.43;;;22.80;36.10;;;;;;5128946;27;20075;-70
2022/01/01 00:29:24;;;;;;;16.67;13.35;;;22.80;36.10;;;;;;5128885;27;20342;-71
2022/01/01 00:32:13;;;;;;;14.98;12.48;;;22.80;36.10;;;;;;5127731;27;20042;-70
2022/01/01 00:34:40;;;;;;;15.80;12.95;;;22.80;36.10;;;;;;5127951;27;20047;-70
2022/01/01 00:37:07;;;;;;;14.75;12.45;;;22.80;36.10;;;;;;5149592;27;20078;-71
2022/01/01 00:39:35;;;;;;;15.38;12.50;;;22.80;36.10;;;;;;5149107;27;20074;-71
2022/01/01 00:42:02;;;;;;;14.50;12.32;;;22.80;36.10;;;;;;5148995;27;20066;-71
2022/01/01 00:44:30;;;;;;;16.60;13.02;;;22.80;36.10;;;;;;5149523;27;20070;-70
2022/01/01 00:46:57;;;;;;;17.67;11.98;;;22.80;36.10;;;;;;5148773;27;20050;-71
2022/01/01 00:49:25;;;;;;;14.60;12.27;;;22.80;36.10;;;;;;5149357;27;20099;-71
2022/01/01 00:51:52;;;;;;;15.15;11.18;;;22.80;36.10;;;;;;5148229;27;20068;-71
2022/01/01 00:54:19;;;;;;;16.50;13.02;;;22.80;36.10;;;;;;5149447;27;20050;-71
2022/01/01 00:56:46;;;;;;;16.65;13.60;;;22.80;36.10;;;;;;5148383;27;20043;-71
2022/01/01 00:59:15;;;;;;;17.13;13.20;;;22.80;36.10;;;;;;5148892;27;20547;-70
2022/01/01 01:01:42;;;;;;;16.30;13.38;;;22.80;36.10;;;;;;5113198;27;20070;-70
2022/01/01 01:04:09;;;;;;;14.65;12.60;;;22.80;36.10;;;;;;5149062;27;20498;-70
2022/01/01 01:06:36;;;;;;;17.08;12.98;;;22.80;36.10;;;;;;5147731;27;20074;-71
2022/01/01 01:09:04;;;;;;;16.83;13.18;;;22.80;36.10;;;;;;5148979;27;20108;-70
2022/01/01 01:11:31;;;;;;;17.40;13.23;;;22.80;36.10;;;;;;5147756;27;20145;-70
2022/01/01 01:14:00;;;;;;;17.70;13.50;;;22.80;36.10;;;;;;5149187;27;20476;-70
2022/01/01 01:16:27;;;;;;;17.10;13.40;;;22.80;36.10;;;;;;5148164;27;20070;-70
2022/01/01 01:18:57;;;;;;;17.00;13.32;;;22.80;36.10;;;;;;5148129;27;20111;-70
2022/01/01 01:21:25;;;;;;;16.53;12.37;;;22.80;36.10;;;;;;5135208;27;20047;-70
2022/01/01 01:23:53;;;;;;;16.60;13.80;;;22.80;36.10;;;;;;5127851;27;20471;-70
2022/01/01 01:26:22;;;;;;;17.77;13.63;;;22.80;36.10;;;;;;5127311;27;20043;-70
2022/01/01 01:28:51;;;;;;;18.42;13.15;;;22.80;36.10;;;;;;5127564;27;20097;-70
2022/01/01 01:31:19;;;;;;;18.55;14.00;;;22.80;36.10;;;;;;5127031;27;20290;-71
2022/01/01 01:33:46;;;;;;;15.77;12.98;;;22.80;36.10;;;;;;5127760;27;20046;-70
2022/01/01 01:36:13;;;;;;;16.88;13.48;;;22.80;36.10;;;;;;5108291;27;20047;-71
2022/01/01 01:38:40;;;;;;;18.80;13.63;;;22.70;36.10;;;;;;5127799;27;20101;-70
2022/01/01 01:41:09;;;;;;;16.92;13.18;;;22.80;36.10;;;;;;5126900;27;20398;-70
2022/01/01 01:43:37;;;;;;;15.77;13.00;;;22.70;36.10;;;;;;5127589;27;20279;-70
2022/01/01 01:46:05;;;;;;;15.65;12.57;;;22.70;36.10;;;;;;5126939;27;20073;-70
2022/01/01 01:48:35;;;;;;;16.73;13.25;;;22.70;36.10;;;;;;5127222;27;20137;-70
2022/01/01 01:51:03;;;;;;;16.52;13.35;;;22.70;36.10;;;;;;5126984;27;20085;-70
2022/01/01 01:53:31;;;;;;;18.27;13.55;;;22.70;36.10;;;;;;5127129;27;20075;-70
2022/01/01 01:56:00;;;;;;;16.27;12.88;;;22.70;36.10;;;;;;5126821;27;20043;-71
2022/01/01 01:58:30;;;;;;;18.15;13.95;;;22.70;36.10;;;;;;5127069;27;20115;-70
2022/01/01 02:01:20;;;;;;;17.60;12.57;;;22.70;36.10;;;;;;5126906;27;20047;-70
2022/01/01 02:03:45;;;;;;;15.23;12.38;;;22.70;36.10;;;;;;5127381;27;20109;-70
2022/01/01 02:06:12;;;;;;;16.77;13.18;;;22.70;36.20;;;;;;5126949;27;20134;-70
2022/01/01 02:08:40;;;;;;;16.08;12.77;;;22.70;36.20;;;;;;5126814;27;20476;-70
2022/01/01 02:11:07;;;;;;;15.25;13.40;;;22.70;36.20;;;;;;5126692;27;20070;-70
2022/01/01 02:14:00;;;;;;;17.33;13.43;;;22.70;36.10;;;;;;5126937;27;20130;-70
2022/01/01 02:16:36;;;;;;;16.25;12.90;;;22.70;36.10;;;;;;5126619;27;20142;-71
2022/01/01 02:19:03;;;;;;;15.07;12.68;;;22.70;36.10;;;;;;5126883;27;20050;-70
2022/01/01 02:21:30;;;;;;;15.88;12.60;;;22.70;36.20;;;;;;5126267;27;20483;-70
2022/01/01 02:23:59;;;;;;;16.23;13.32;;;22.70;36.10;;;;;;5127580;27;20047;-70
2022/01/01 02:26:32;;;;;;;14.90;11.88;;;22.70;36.10;;;;;;5126365;27;20555;-70
2022/01/01 02:29:00;;;;;;;18.20;13.70;;;22.60;36.10;;;;;;5126766;27;20452;-70
2022/01/01 02:31:27;;;;;;;16.00;12.98;;;22.60;36.10;;;;;;5126376;27;20089;-70
2022/01/01 02:33:54;;;;;;;16.73;13.15;;;22.70;36.20;;;;;;5108379;28;20066;-70
2022/01/01 02:36:37;;;;;;;16.00;12.57;;;22.70;36.20;;;;;;5126258;28;20118;-71
2022/01/01 02:39:17;;;;;;;16.23;12.15;;;22.70;36.20;;;;;;5126835;28;20040;-70
2022/01/01 02:41:46;;;;;;;16.75;13.52;;;22.70;36.20;;;;;;5125741;27;20071;-70
2022/01/01 02:44:13;;;;;;;16.25;12.75;;;22.70;36.10;;;;;;5127117;28;20165;-70
2022/01/01 02:46:41;;;;;;;15.75;12.07;;;22.60;36.10;;;;;;5126649;27;20086;-70
2022/01/01 02:49:08;;;;;;;17.88;13.15;;;22.70;36.20;;;;;;5151581;27;20047;-70
2022/01/01 02:51:35;;;;;;;16.55;12.55;;;22.60;36.10;;;;;;5151559;27;20042;-70
2022/01/01 02:54:03;;;;;;;15.85;13.38;;;22.70;36.10;;;;;;5151103;27;20086;-70
2022/01/01 02:56:30;;;;;;;17.15;12.98;;;22.70;36.10;;;;;;5151009;27;20050;-71
2022/01/01 02:58:57;;;;;;;17.20;12.63;;;22.70;36.10;;;;;;5150983;27;20066;-70
2022/01/01 03:01:24;;;;;;;16.25;12.93;;;22.70;36.10;;;;;;5151082;27;20055;-72
2022/01/01 03:03:51;;;;;;;16.17;13.13;;;22.60;36.10;;;;;;5151354;27;20525;-70
2022/01/01 03:06:22;;;;;;;16.58;13.07;;;22.60;36.10;;;;;;5150928;27;20053;-70
2022/01/01 03:08:52;;;;;;;15.35;12.38;;;22.70;36.10;;;;;;5150701;27;20428;-70
2022/01/01 03:11:19;;;;;;;16.08;12.40;;;22.60;36.10;;;;;;5133125;27;20050;-70
2022/01/01 03:13:47;;;;;;;16.15;12.60;;;22.60;36.10;;;;;;5150744;27;20043;-70
2022/01/01 03:16:14;;;;;;;14.60;12.48;;;22.60;36.10;;;;;;5151056;27;20046;-70
2022/01/01 03:18:41;;;;;;;15.75;12.10;;;22.60;36.10;;;;;;5151112;27;20100;-70
2022/01/01 03:21:09;;;;;;;15.40;11.80;;;22.60;36.10;;;;;;5132282;27;20449;-70
2022/01/01 03:23:36;;;;;;;15.75;12.00;;;22.60;36.10;;;;;;5132198;27;20043;-70
2022/01/01 03:26:03;;;;;;;15.68;12.10;;;22.60;36.10;;;;;;5150744;27;20055;-70
2022/01/01 03:28:30;;;;;;;14.07;11.63;;;22.60;36.10;;;;;;5150657;27;20042;-70
2022/01/01 03:30:58;;;;;;;15.43;12.60;;;22.60;36.10;;;;;;5150506;27;20088;-69
2022/01/01 03:33:26;;;;;;;15.52;11.93;;;22.60;36.10;;;;;;5150688;27;20094;-70
2022/01/01 03:35:53;;;;;;;15.60;12.63;;;22.60;36.10;;;;;;5149750;27;20093;-70
2022/01/01 03:38:20;;;;;;;17.10;12.98;;;22.60;36.10;;;;;;5149899;27;20042;-70
2022/01/01 03:40:48;;;;;;;16.05;12.18;;;22.60;36.10;;;;;;5132286;27;20046;-70
2022/01/01 03:43:15;;;;;;;14.77;11.85;;;22.50;36.10;;;;;;5151010;27;20078;-70
2022/01/01 03:45:42;;;;;;;14.13;11.30;;;22.50;36.10;;;;;;5149839;27;20135;-70
2022/01/01 03:48:09;;;;;;;14.35;11.55;;;22.60;36.10;;;;;;5150744;27;20051;-70
2022/01/01 03:50:36;;;;;;;14.02;11.63;;;22.60;36.10;;;;;;5150306;27;20125;-70
2022/01/01 03:53:03;;;;;;;15.25;12.00;;;22.50;36.10;;;;;;5150363;27;20299;-70
2022/01/01 03:55:30;;;;;;;13.60;11.65;;;22.50;36.10;;;;;;5150033;27;20482;-70
2022/01/01 03:57:57;;;;;;;13.95;11.85;;;22.50;36.10;;;;;;5150699;27;20051;-70
2022/01/01 04:00:25;;;;;;;14.40;11.75;;;22.50;36.10;;;;;;5149283;27;20043;-69
2022/01/01 04:02:52;;;;;;;13.57;11.52;;;22.50;36.10;;;;;;5150031;27;20488;-70
2022/01/01 04:05:19;;;;;;;15.68;12.32;;;22.50;36.10;;;;;;5149282;27;20039;-70
2022/01/01 04:07:46;;;;;;;14.27;11.80;;;22.50;36.10;;;;;;5150577;27;20103;-70
2022/01/01 04:10:13;;;;;;;12.43;11.10;;;22.50;36.10;;;;;;5149793;27;20072;-71
2022/01/01 04:12:40;;;;;;;14.93;11.77;;;22.50;36.10;;;;;;5150149;27;20115;-70
2022/01/01 04:15:08;;;;;;;13.93;11.23;;;22.50;36.10;;;;;;5149169;27;20074;-69
2022/01/01 04:17:37;;;;;;;14.00;11.70;;;22.50;36.10;;;;;;5149883;27;20126;-70
2022/01/01 04:20:06;;;;;;;14.77;10.93;;;22.50;36.10;;;;;;5149020;27;20487;-70
2022/01/01 04:22:33;;;;;;;15.60;11.95;;;22.50;36.10;;;;;;5150105;27;20051;-70
2022/01/01 04:25:00;;;;;;;13.10;11.15;;;22.50;36.10;;;;;;5148875;27;20053;-69
2022/01/01 04:27:28;;;;;;;12.98;10.85;;;22.50;36.10;;;;;;5149757;27;20109;-70
2022/01/01 04:29:55;;;;;;;14.88;10.57;;;22.50;36.10;;;;;;5148987;27;20130;-70
2022/01/01 04:32:22;;;;;;;12.77;10.93;;;22.50;36.10;;;;;;5131849;27;20038;-70
2022/01/01 04:34:49;;;;;;;12.68;10.52;;;22.50;36.00;;;;;;5148725;27;20225;-71
2022/01/01 04:37:19;;;;;;;13.57;10.75;;;22.50;36.00;;;;;;5131599;27;20131;-70
2022/01/01 04:39:48;;;;;;;13.52;10.60;;;22.50;36.00;;;;;;5148599;27;20070;-70
2022/01/01 04:42:15;;;;;;;12.63;10.80;;;22.50;36.60;;;;;;5149563;27;20118;-70
2022/01/01 04:44:42;;;;;;;12.68;10.70;;;22.60;36.10;;;;;;5148867;27;20125;-70
2022/01/01 04:47:10;;;;;;;12.77;10.30;;;22.50;36.00;;;;;;5149143;27;20042;-70
2022/01/01 04:49:37;;;;;;;12.77;10.63;;;22.50;36.00;;;;;;5149205;27;20370;-69
2022/01/01 04:52:04;;;;;;;13.18;10.40;;;22.50;36.00;;;;;;5130969;27;20055;-70
2022/01/01 04:54:31;;;;;;;11.90;10.15;;;22.50;36.00;;;;;;5148674;27;20483;-70
2022/01/01 04:57:14;;;;;;;12.38;10.02;;;22.50;36.00;;;;;;5130334;27;20125;-70
2022/01/01 04:59:42;;;;;;;12.85;10.68;;;22.50;36.00;;;;;;5148231;27;20350;-69
2022/01/01 05:02:09;;;;;;;14.23;11.23;;;22.50;36.00;;;;;;5149296;27;20043;-69
2022/01/01 05:04:38;;;;;;;14.43;10.70;;;22.50;36.00;;;;;;5147979;27;20047;-69
2022/01/01 05:07:07;;;;;;;12.70;10.75;;;22.50;36.00;;;;;;5145487;27;20074;-70
2022/01/01 05:09:34;;;;;;;11.43;9.75;;;22.50;36.00;;;;;;5127581;27;20268;-70
2022/01/01 05:12:01;;;;;;;11.32;9.60;;;22.50;36.00;;;;;;5126717;27;20377;-69
2022/01/01 05:14:30;;;;;;;13.43;10.88;;;22.50;36.00;;;;;;5128129;27;20134;-70
2022/01/01 05:16:57;;;;;;;11.88;10.25;;;22.50;36.00;;;;;;5127281;27;20089;-69
2022/01/01 05:19:24;;;;;;;10.73;9.13;;;22.50;36.00;;;;;;5127993;27;20266;-70
2022/01/01 05:21:55;;;;;;;11.40;9.25;;;22.50;36.00;;;;;;5127197;27;20047;-69
2022/01/01 05:24:22;;;;;;;12.38;10.50;;;22.50;36.00;;;;;;5127235;27;20527;-69
2022/01/01 05:26:50;;;;;;;12.10;9.70;;;22.50;36.00;;;;;;5127647;27;20133;-70
2022/01/01 05:29:17;;;;;;;11.75;10.02;;;22.50;36.00;;;;;;5109519;27;20126;-69
2022/01/01 05:31:44;;;;;;;10.20;8.85;;;22.50;36.00;;;;;;5109215;27;20082;-70
2022/01/01 05:34:11;;;;;;;11.60;9.38;;;22.40;36.00;;;;;;5127841;27;20146;-69
2022/01/01 05:36:38;;;;;;;13.32;10.00;;;22.40;36.00;;;;;;5127349;27;20059;-69
2022/01/01 05:39:08;;;;;;;12.15;9.65;;;22.40;36.00;;;;;;5128088;27;20051;-70
2022/01/01 05:41:35;;;;;;;11.18;9.40;;;22.40;36.00;;;;;;5108495;27;20122;-70
2022/01/01 05:44:02;;;;;;;10.65;8.98;;;22.40;36.00;;;;;;5127873;27;20078;-69
2022/01/01 05:46:31;;;;;;;11.82;9.77;;;22.40;36.50;;;;;;5107862;27;20039;-69
2022/01/01 05:48:59;;;;;;;10.20;8.90;;;22.40;36.00;;;;;;5127673;27;20043;-70
2022/01/01 05:51:26;;;;;;;10.82;9.10;;;22.40;36.00;;;;;;5126531;27;20090;-69
2022/01/01 05:53:53;;;;;;;10.20;8.95;;;22.40;36.00;;;;;;5127663;27;20086;-70
2022/01/01 05:56:20;;;;;;;10.50;8.60;;;22.40;35.90;;;;;;5125239;27;20265;-70
2022/01/01 05:58:47;;;;;;;10.32;8.98;;;22.40;36.00;;;;;;5113043;27;20299;-70
2022/01/01 06:01:14;;;;;;;11.57;9.02;;;22.40;35.90;;;;;;5114087;27;20130;-69
2022/01/01 06:03:42;;;;;;;10.23;8.75;;;22.40;36.00;;;;;;5114114;27;20049;-70
2022/01/01 06:06:09;;;;;;;10.50;9.02;;;22.40;36.00;;;;;;5105073;28;20083;-69
2022/01/01 06:08:56;;;;;;;9.27;8.27;;;22.40;35.80;;;;;;5106794;28;20488;-70
2022/01/01 06:11:23;;;;;;;10.95;8.50;;;22.40;35.50;;;;;;5118803;27;20131;-69
2022/01/01 06:13:50;;;;;;;9.80;8.73;;;22.40;35.40;;;;;;5127228;27;20071;-69
2022/01/01 06:16:17;;;;;;;10.13;8.77;;;22.40;35.30;;;;;;5108771;27;20130;-70
2022/01/01 06:18:44;;;;;;;10.43;7.47;;;22.40;35.10;;;;;;5106536;28;20079;-70
2022/01/01 06:21:12;;;;;;;10.00;7.85;;;22.40;35.60;;;;;;5105953;28;20044;-69
2022/01/01 06:23:40;;;;;;;10.10;8.38;;;22.50;35.00;;;;;;5106427;28;20139;-70
2022/01/01 06:26:08;;;;;;;9.75;8.30;;;22.50;34.90;;;;;;5106264;28;20093;-70
2022/01/01 06:28:35;;;;;;;9.63;8.65;;;22.40;34.80;;;;;;5106148;28;20044;-70
2022/01/01 06:31:02;;;;;;;8.73;7.82;;;22.40;34.80;;;;;;5106711;28;20090;-69
2022/01/01 06:33:29;;;;;;;9.85;8.35;;;22.40;34.80;;;;;;5116987;27;20057;-70
2022/01/01 06:35:56;;;;;;;8.73;7.78;;;22.40;34.80;;;;;;5120754;28;20048;-69
2022/01/01 06:38:23;;;;;;;9.75;8.05;;;22.40;34.80;;;;;;5120190;28;20137;-70
2022/01/01 06:40:51;;;;;;;8.13;7.32;;;22.40;34.70;;;;;;5114695;28;20077;-69
2022/01/01 06:43:21;;;;;;;8.07;7.28;;;22.40;34.60;;;;;;5111664;28;20036;-70
2022/01/01 06:45:48;;;;;;;;;;;22.40;34.60;;;;;;5107122;28;20048;-70
2022/01/01 06:48:16;;;;;;;10.10;7.55;;;22.30;34.60;;;;;;5088154;28;19923;-70
2022/01/01 06:50:43;;;;;;;8.48;7.63;;;22.30;34.70;;;;;;5106171;28;20487;-70
2022/01/01 06:53:11;;;;;;;8.25;7.35;;;22.30;34.80;;;;;;5087806;28;20518;-70
2022/01/01 06:55:39;;;;;;;8.95;7.88;;;22.30;34.80;;;;;;5106235;28;20083;-70
2022/01/01 06:58:06;;;;;;;7.93;6.97;;;22.30;34.80;;;;;;5105329;28;20071;-70
2022/01/01 07:00:33;;;;;;;7.35;6.65;;;22.40;34.80;;;;;;5104882;28;20056;-70
2022/01/01 07:03:01;;;;;;;7.57;6.75;;;22.40;34.70;;;;;;5105201;28;20109;-70
2022/01/01 07:05:28;;;;;;;6.88;6.18;;;22.40;34.60;;;;;;5087443;28;20351;-69
2022/01/01 07:07:55;;;;;;;7.68;6.93;;;22.50;34.60;;;;;;5105876;28;20039;-69
2022/01/01 07:10:23;;;;;;;7.30;6.40;;;22.50;34.60;;;;;;5105281;28;20090;-69
2022/01/01 07:12:50;;;;;;;6.80;6.10;;;22.50;34.40;;;;;;5105485;28;20182;-69
2022/01/01 07:15:17;;;;;;;7.75;6.75;;;22.60;34.40;;;;;;5105715;28;20134;-70
2022/01/01 07:17:45;;;;;;;7.55;6.65;;;22.60;34.40;;;;;;5087285;28;20055;-69
2022/01/01 07:20:12;;;;;;;7.85;6.63;;;22.70;34.30;;;;;;5105816;28;20312;-69
2022/01/01 07:22:42;;;;;;;7.22;6.53;;;22.70;34.20;;;;;;5105437;28;20039;-70
2022/01/01 07:25:11;;;;;;;7.97;6.80;;;22.80;34.20;;;;;;5087441;28;20139;-70
2022/01/01 07:27:38;;;;;;;7.93;6.93;;;22.80;34.10;;;;;;5105542;28;20048;-69
2022/01/01 07:30:07;;;;;;;8.85;7.13;;;22.90;34.00;;;;;;5105532;28;20135;-69
2022/01/01 07:32:42;;;;;;;9.85;7.78;;;22.90;33.90;;;;;;5105730;28;20047;-70
2022/01/01 07:35:10;;;;;;;7.50;6.72;;;23.00;33.90;;;;;;5107809;28;20044;-70
2022/01/01 07:37:38;;;;;;;7.97;7.18;;;23.00;33.80;;;;;;5109204;28;20316;-70
2022/01/01 07:40:08;;;;;;;8.30;7.13;;;23.00;33.70;;;;;;5109074;28;20102;-70
2022/01/01 07:42:35;;;;;;;9.20;7.05;;;23.10;33.70;;;;;;5109457;28;20127;-70
2022/01/01 07:45:04;;;;;;;8.15;6.57;;;23.20;33.60;;;;;;5109299;28;20146;-70
2022/01/01 07:47:31;;;;;;;8.20;7.22;;;23.20;33.60;;;;;;5109236;28;20406;-70
2022/01/01 07:49:58;;;;;;;7.90;7.00;;;23.20;33.50;;;;;;5108747;28;20075;-70
2022/01/01 07:52:26;;;;;;;8.85;7.03;;;23.30;33.50;;;;;;5109375;28;20040;-70
2022/01/01 07:54:53;;;;;;;7.82;6.68;;;23.30;33.50;;;;;;5108688;28;20055;-71
2022/01/01 07:57:22;;;;;;;7.22;6.53;;;23.40;33.40;;;;;;5109159;28;20043;-70
2022/01/01 07:59:50;;;;;;;8.38;7.07;;;23.40;33.30;;;;;;5108367;28;20078;-70
2022/01/01 08:02:17;;;;;;;7.78;6.95;;;23.50;33.30;;;;;;5109770;28;20102;-70
2022/01/01 08:04:45;;;;;;;6.65;5.95;;;23.50;33.20;;;;;;5107879;28;20288;-69
2022/01/01 08:07:12;;;;;;;8.60;6.75;;;23.60;33.10;;;;;;5091507;28;20051;-73
2022/01/01 08:09:59;;;;;;;8.45;6.95;;;23.60;33.00;;;;;;5108017;28;20044;-69
2022/01/01 08:12:26;;;;;;;7.40;6.45;;;23.70;33.00;;;;;;5108730;28;20079;-70
2022/01/01 08:14:56;;;;;;;7.63;6.72;;;23.80;32.90;;;;;;5108152;28;20134;-70
2022/01/01 08:17:24;;;;;;;7.72;6.95;;;23.80;32.70;;;;;;5108847;28;20051;-70
2022/01/01 08:19:52;;;;;;;7.43;6.72;;;23.90;32.60;;;;;;5108321;28;20047;-70
2022/01/01 08:22:19;;;;;;;7.93;6.97;;;23.90;32.40;;;;;;5108759;28;20481;-70
2022/01/01 08:24:46;;;;;;;7.47;6.40;;;24.00;32.40;;;;;;5107774;28;20131;-70
2022/01/01 08:27:13;;;;;;;8.00;7.15;;;24.00;32.30;;;;;;5109498;28;20078;-71
2022/01/01 08:29:40;;;;;;;7.38;6.53;;;24.10;32.30;;;;;;5107700;28;20112;-70
2022/01/01 08:32:08;;;;;;;8.00;7.13;;;24.20;32.20;;;;;;5109217;28;20109;-70
2022/01/01 08:34:35;;;;;;;8.93;7.68;;;24.30;32.20;;;;;;5107317;28;20164;-70
2022/01/01 08:37:03;;;;;;;8.65;7.82;;;24.30;32.10;;;;;;5108108;28;20121;-70
2022/01/01 08:39:30;;;;;;;8.27;7.35;;;24.40;32.10;;;;;;5107735;28;20079;-71
2022/01/01 08:41:57;;;;;;;7.40;6.60;;;24.50;32.00;;;;;;5108387;28;20048;-70
2022/01/01 08:44:25;;;;;;;8.48;7.60;;;24.50;31.90;;;;;;5107594;28;20043;-71
2022/01/01 08:47:15;;;;;;;7.90;7.10;;;24.50;31.90;;;;;;5107521;28;20062;-71
2022/01/01 08:49:42;;;;;;;7.90;7.03;;;24.60;31.90;;;;;;5107409;28;20073;-71
2022/01/01 08:52:12;;;;;;;9.18;7.55;;;24.60;31.80;;;;;;5108386;28;20058;-71
2022/01/01 08:54:39;;;;;;;7.80;7.00;;;24.70;31.80;;;;;;5107129;28;20040;-71
2022/01/01 08:57:09;;;;;;;7.72;6.93;;;24.70;31.80;;;;;;5108251;28;20082;-70
2022/01/01 08:59:37;;;;;;;8.10;7.30;;;24.70;31.70;;;;;;5106820;28;20039;-71
2022/01/01 09:02:04;;;;;;;8.00;7.00;;;24.80;31.70;;;;;;5115058;27;20039;-71
2022/01/01 09:04:31;;;;;;;8.27;7.45;;;24.80;31.60;;;;;;5126415;27;20251;-71
2022/01/01 09:06:59;;;;;;;8.23;7.40;;;24.80;31.60;;;;;;5110311;27;20291;-71
2022/01/01 09:09:26;;;;;;;9.32;8.20;;;24.90;31.60;;;;;;5109543;27;20077;-71
2022/01/01 09:11:54;;;;;;;8.30;7.40;;;24.90;31.60;;;;;;5127721;27;20346;-71
2022/01/01 09:14:21;;;;;;;9.82;8.25;;;24.90;32.20;;;;;;5127964;27;20608;-71
2022/01/01 09:16:49;;;;;;;9.32;8.25;;;25.00;31.60;;;;;;5127647;27;20126;-71
2022/01/01 09:19:16;;;;;;;8.93;8.00;;;25.00;31.60;;;;;;5127754;27;20130;-71
2022/01/01 09:21:43;;;;;;;8.48;7.57;;;25.00;31.60;;;;;;5127583;27;20541;-71
2022/01/01 09:24:10;;;;;;;8.57;7.68;;;25.10;31.60;;;;;;5108964;27;20078;-71
2022/01/01 09:26:38;;;;;;;8.88;7.78;;;25.10;31.60;;;;;;5127621;27;20082;-71
2022/01/01 09:29:06;;;;;;;8.75;7.55;;;25.10;31.50;;;;;;5128062;27;20567;-71
2022/01/01 09:31:33;;;;;;;8.27;7.50;;;25.20;31.60;;;;;;5127315;27;20144;-72
2022/01/01 09:34:03;;;;;;;7.35;6.65;;;25.20;31.50;;;;;;5127518;27;20285;-71
2022/01/01 09:36:31;;;;;;;8.75;7.45;;;25.20;31.50;;;;;;5109608;27;20062;-71
2022/01/01 09:38:58;;;;;;;7.53;6.82;;;25.30;31.60;;;;;;5127540;27;20133;-71
2022/01/01 09:41:26;;;;;;;8.20;6.75;;;25.30;31.60;;;;;;5127005;27;20519;-71
2022/01/01 09:43:54;;;;;;;7.88;6.95;;;25.30;31.50;;;;;;5127684;27;20053;-71
2022/01/01 09:46:22;;;;;;;7.07;6.38;;;25.30;31.60;;;;;;5108864;27;20074;-71
2022/01/01 09:48:55;;;;;;;7.30;6.50;;;25.30;31.60;;;;;;5127486;27;20044;-71
2022/01/01 09:51:22;;;;;;;7.65;6.90;;;25.30;31.70;;;;;;5126472;27;20051;-71
2022/01/01 09:53:49;;;;;;;6.90;6.20;;;25.30;31.80;;;;;;5127438;27;20122;-71
2022/01/01 09:56:16;;;;;;;7.30;6.13;;;25.20;31.70;;;;;;5126488;27;20086;-71
2022/01/01 09:58:44;;;;;;;7.18;6.47;;;25.20;31.80;;;;;;5127460;27;20082;-71
2022/01/01 10:01:11;;;;;;;7.65;6.90;;;25.20;31.90;;;;;;5126801;27;20043;-71
2022/01/01 10:03:40;;;;;;;6.57;5.97;;;25.20;31.90;;;;;;5127641;27;20054;-71
2022/01/01 10:06:12;;;;;;;7.23;6.57;;;25.20;31.90;;;;;;5126414;27;20407;-71
2022/01/01 10:08:41;;;;;;;7.32;6.20;;;25.10;31.90;;;;;;5127716;27;20291;-72
2022/01/01 10:11:08;;;;;;;6.18;5.57;;;25.10;31.90;;;;;;5126334;27;20126;-71
2022/01/01 10:13:38;;;;;;;7.00;6.30;;;25.10;32.00;;;;;;5127114;27;20324;-72
2022/01/01 10:16:07;;;;;;;6.60;5.35;;;25.10;32.00;;;;;;5126094;27;20047;-71
2022/01/01 10:18:37;;;;;;;5.50;5.03;;;25.10;32.10;;;;;;5108971;27;20119;-72
2022/01/01 10:21:11;;;;;;;6.00;5.40;;;25.10;32.10;;;;;;5126218;27;20712;-71
2022/01/01 10:23:42;;;;;;;5.75;5.15;;;25.10;32.10;;;;;;5127032;27;20522;-72
2022/01/01 10:29:30;;;;;;;5.15;4.65;;;25.10;32.20;;;;;;5127317;27;20131;-71
2022/01/01 10:32:07;;;;;;;7.05;5.22;;;25.10;32.20;;;;;;5126598;27;20460;-71
2022/01/01 10:34:45;;;;;;;5.20;4.70;;;25.10;32.30;;;;;;5126311;28;20468;-73
2022/01/01 10:37:32;;;;;;;5.60;5.10;;;25.10;32.90;;;;;;5127036;28;20047;-71
2022/01/01 10:39:59;;;;;;;5.50;5.00;;;25.10;32.30;;;;;;5126421;28;20092;-71
2022/01/01 10:42:28;;;;;;;6.57;5.05;;;25.10;32.30;;;;;;5126937;28;20126;-71
2022/01/01 10:44:55;;;;;;;5.43;4.80;;;25.10;32.40;;;;;;5126188;28;20092;-71
2022/01/01 10:47:35;;;;;;;4.85;4.45;;;25.10;32.50;;;;;;5126595;28;20195;-72
2022/01/01 10:50:15;;;;;;;4.38;3.97;;;25.10;32.50;;;;;;5126174;28;20138;-72
2022/01/01 10:52:45;;;;;;;4.85;4.35;;;25.10;32.50;;;;;;5127068;28;20134;-72
2022/01/01 10:55:15;;;;;;;4.97;4.57;;;25.10;32.50;;;;;;5126107;28;20514;-72
2022/01/01 10:57:53;;;;;;;6.28;5.13;;;25.10;32.50;;;;;;5126473;28;20051;-72
2022/01/01 11:00:23;;;;;;;4.75;4.35;;;25.10;32.50;;;;;;5126488;28;20387;-71
2022/01/01 11:02:58;;;;;;;4.00;3.65;;;25.10;32.50;;;;;;5126072;28;20086;-72
2022/01/01 11:05:34;;;;;;;4.60;4.20;;;25.10;32.50;;;;;;5126031;28;20480;-71
2022/01/01 11:08:03;;;;;;;3.95;3.58;;;25.10;32.50;;;;;;5126384;27;20079;-72
2022/01/01 11:10:31;;;;;;;4.13;3.33;;;25.10;32.50;;;;;;5129958;27;20381;-73
2022/01/01 11:12:59;;;;;;;3.88;3.50;;;25.10;32.50;;;;;;5130270;27;20116;-72
2022/01/01 11:15:28;;;;;;;4.53;3.13;;;25.10;32.50;;;;;;5130107;27;20131;-71
2022/01/01 11:17:56;;;;;;;3.80;3.47;;;25.10;32.50;;;;;;5130139;27;20051;-71
2022/01/01 11:20:25;;;;;;;3.10;2.90;;;25.20;32.60;;;;;;5130172;27;20051;-72
2022/01/01 11:22:52;;;;;;;3.20;2.90;;;25.20;32.60;;;;;;5129915;27;20058;-72
2022/01/01 11:25:19;;;;;;;3.25;2.95;;;25.20;32.60;;;;;;5129476;27;20225;-71
2022/01/01 11:27:47;;;;;;;3.28;2.90;;;25.20;32.60;;;;;;5130626;27;20132;-72
2022/01/01 11:30:16;;;;;;;3.28;2.65;;;25.20;32.60;;;;;;5129617;27;20478;-71
2022/01/01 11:33:01;;;;;;;3.17;2.80;;;25.20;32.50;;;;;;5130143;27;20118;-71
2022/01/01 11:35:32;;;;;;;2.88;2.67;;;25.20;32.50;;;;;;5130062;27;20051;-71
2022/01/01 11:38:15;;;;;;;2.88;2.67;;;25.20;32.50;;;;;;5130316;27;20131;-71
2022/01/01 11:40:58;;;;;;;2.80;2.60;;;25.30;32.60;;;;;;5129726;27;20156;-71
2022/01/01 11:43:42;;;;;;;2.53;2.33;;;25.30;32.60;;;;;;5130557;27;20075;-71
2022/01/01 11:46:19;;;;;;;2.20;2.10;;;25.30;32.50;;;;;;5129499;27;20627;-71
2022/01/01 11:48:57;;;;;;;2.83;2.63;;;25.30;32.50;;;;;;5130053;27;20569;-71
2022/01/01 11:51:38;;;;;;;2.35;2.15;;;25.30;32.50;;;;;;5128655;27;20477;-71
2022/01/01 11:54:32;;;;;;;2.25;2.05;;;25.30;32.50;;;;;;5129939;27;20043;-72
2022/01/01 11:57:25;;;;;;;1.92;1.83;;;25.30;32.40;;;;;;5114629;27;20097;-72
2022/01/01 12:00:00;;;;;;;2.30;2.10;;;25.30;32.40;;;;;;5129275;27;20043;-72
2022/01/01 12:02:31;;;;;;;2.20;2.00;;;25.30;32.40;;;;;;5128803;27;20115;-72
2022/01/01 12:05:10;;;;;;;1.83;1.73;;;25.40;32.50;;;;;;5129544;27;20070;-71
2022/01/01 12:07:43;;;;;;;2.38;2.17;;;25.30;32.40;;;;;;5129291;27;20048;-72
2022/01/01 12:10:17;;;;;;;1.90;1.80;;;25.40;32.40;;;;;;5129511;27;20144;-72
2022/01/01 12:12:56;;;;;;;1.95;1.85;;;25.40;32.40;;;;;;5129003;27;20070;-72
2022/01/01 12:15:49;;;;;;;1.77;1.67;;;25.40;32.40;;;;;;5129169;27;20171;-72
2022/01/01 12:18:22;;;;;;;2.15;1.95;;;25.40;32.40;;;;;;5129366;27;20047;-72
2022/01/01 12:20:57;;;;;;;1.83;1.73;;;25.40;32.40;;;;;;5128303;27;20101;-72
2022/01/01 12:23:28;;;;;;;2.03;1.85;;;25.40;32.40;;;;;;5128750;27;20294;-72
2022/01/01 12:25:55;;;;;;;1.92;1.60;;;25.40;32.40;;;;;;5128527;27;20047;-72
2022/01/01 12:28:31;;;;;;;1.50;1.40;;;25.40;32.40;;;;;;5129168;27;20039;-72
2022/01/01 12:31:08;;;;;;;1.63;1.52;;;25.40;32.30;;;;;;5127892;27;20043;-72
2022/01/01 12:33:54;;;;;;;1.92;1.65;;;25.40;32.30;;;;;;5129103;27;20484;-72
2022/01/01 12:36:24;;;;;;;1.40;1.30;;;25.40;32.40;;;;;;5110402;27;20039;-71
2022/01/01 12:38:54;;;;;;;1.70;1.60;;;25.40;32.30;;;;;;5128507;27;20051;-72
2022/01/01 12:41:30;;;;;;;1.48;1.38;;;25.40;32.30;;;;;;5128913;27;20051;-72
2022/01/01 12:43:59;;;;;;;1.90;1.77;;;25.40;32.30;;;;;;5128440;27;20126;-75
2022/01/01 12:46:30;;;;;;;1.50;1.40;;;25.40;32.30;;;;;;5128649;27;20116;-71
2022/01/01 12:49:00;;;;;;;1.40;1.30;;;25.40;32.30;;;;;;5128470;27;20036;-72
2022/01/01 12:51:30;;;;;;;1.40;1.30;;;25.40;32.30;;;;;;5110388;27;20075;-72
2022/01/01 12:53:59;;;;;;;1.58;1.48;;;25.40;32.20;;;;;;5129054;27;20116;-72